Time;durP1;ratioP1;P1;durP2;ratioP2;P2;SDS_P1;SDS_P2;PMS_P1;PMS_P2;Temp;Humidity;BMP_temperature;BMP_pressure;BME280_temperature;BME280_humidity;BME280_pressure;Samples;Min_cycle;Max_cycle;Signal;HPM_P1;HPM_P2
2022/07/10 00:02:03;;;;;;;2.95;2.75;;;;;;;18.66;66.83;97303.78;4943551;29;20102;-85
2022/07/10 00:04:31;;;;;;;3.65;2.78;;;;;;;18.61;66.74;97298.34;4943874;29;20061;-85
2022/07/10 00:06:58;;;;;;;3.28;3.00;;;;;;;18.53;67.11;97297.56;4942758;29;20055;-86
2022/07/10 00:09:27;;;;;;;3.80;2.80;;;;;;;18.48;67.58;97297.41;4942569;29;20490;-88
2022/07/10 00:11:57;;;;;;;3.60;2.60;;;;;;;18.46;67.53;97296.81;4941608;29;20079;-84
2022/07/10 00:14:25;;;;;;;3.85;2.70;;;;;;;18.41;67.28;97288.75;4942025;29;20079;-82
2022/07/10 00:16:53;;;;;;;3.22;2.92;;;;;;;18.37;67.38;97287.56;4942589;29;20051;-85
2022/07/10 00:19:21;;;;;;;2.95;2.55;;;;;;;18.33;67.30;97299.56;4942342;29;20545;-82
2022/07/10 00:21:48;;;;;;;4.70;2.97;;;;;;;18.28;67.73;97288.84;4941613;29;20052;-82
2022/07/10 00:24:16;;;;;;;3.13;2.72;;;;;;;18.27;67.99;97293.28;4942436;29;20051;-82
2022/07/10 00:26:44;;;;;;;3.33;3.00;;;;;;;18.27;68.46;97279.28;4942343;29;20052;-88
2022/07/10 00:29:13;;;;;;;2.85;2.55;;;;;;;18.28;68.31;97284.34;4947325;29;20530;-89
2022/07/10 00:31:41;;;;;;;2.90;2.70;;;;;;;18.31;67.87;97283.13;4947556;29;20521;-87
2022/07/10 00:34:09;;;;;;;2.35;2.17;;;;;;;18.32;68.03;97282.06;4947579;29;20055;-86
2022/07/10 00:36:37;;;;;;;3.25;2.67;;;;;;;18.30;67.42;97278.84;4947722;29;20056;-90
2022/07/10 00:39:05;;;;;;;6.07;2.60;;;;;;;18.26;67.63;97277.69;4947818;29;20083;-88
2022/07/10 00:41:33;;;;;;;3.20;2.75;;;;;;;18.21;67.69;97280.94;4947144;29;20079;-86
2022/07/10 00:44:02;;;;;;;3.17;2.97;;;;;;;18.13;67.67;97283.84;4946374;29;20059;-86
2022/07/10 00:46:32;;;;;;;2.83;2.63;;;;;;;18.10;68.14;97276.34;4947245;29;20060;-88
2022/07/10 00:49:00;;;;;;;3.00;2.70;;;;;;;18.10;67.92;97279.81;4947581;29;20418;-88
2022/07/10 00:51:29;;;;;;;3.65;3.33;;;;;;;18.05;67.70;97276.97;4946899;29;20106;-85
2022/07/10 00:53:58;;;;;;;3.25;3.05;;;;;;;18.00;67.73;97286.56;4949238;29;20048;-88
2022/07/10 00:56:27;;;;;;;2.80;2.58;;;;;;;17.96;67.53;97283.53;4951589;29;20067;-89
2022/07/10 00:58:55;;;;;;;3.20;3.00;;;;;;;17.95;67.70;97281.09;4950427;29;20047;-89
2022/07/10 01:01:24;;;;;;;2.92;2.67;;;;;;;17.94;67.94;97285.56;4947448;29;20059;-88
2022/07/10 01:03:53;;;;;;;3.13;2.83;;;;;;;17.97;68.45;97282.50;4947984;29;20047;-87
2022/07/10 01:06:21;;;;;;;3.28;3.08;;;;;;;17.95;67.55;97275.81;4947998;29;20056;-88
2022/07/10 01:08:49;;;;;;;3.22;3.03;;;;;;;17.90;67.35;97276.47;4947301;29;20047;-85
2022/07/10 01:11:16;;;;;;;5.28;3.20;;;;;;;17.86;67.38;97262.06;4947065;29;20079;-86
2022/07/10 01:13:44;;;;;;;4.15;3.53;;;;;;;17.79;66.87;97271.81;4946424;29;20083;-83
2022/07/10 01:16:12;;;;;;;6.80;3.45;;;;;;;17.73;67.12;97272.66;4946303;29;20433;-86
2022/07/10 01:18:40;;;;;;;5.07;3.53;;;;;;;17.66;67.18;97272.69;4947388;29;20059;-83
2022/07/10 01:21:26;;;;;;;3.67;3.38;;;;;;;17.62;67.97;97264.41;4957129;29;20056;-85
2022/07/10 01:23:54;;;;;;;3.65;3.30;;;;;;;17.58;67.25;97265.84;4943230;29;20062;-86
2022/07/10 01:26:23;;;;;;;3.70;3.40;;;;;;;17.52;67.02;97257.97;4942876;29;20123;-85
2022/07/10 01:28:52;;;;;;;3.50;3.20;;;;;;;17.48;67.17;97270.75;4943034;29;20099;-90
2022/07/10 01:31:20;;;;;;;3.70;3.40;;;;;;;17.41;67.22;97268.13;4942268;29;20169;-87
2022/07/10 01:33:48;;;;;;;3.47;3.15;;;;;;;17.39;67.13;97272.81;4942982;29;20051;-85
2022/07/10 01:36:17;;;;;;;3.63;3.30;;;;;;;17.38;66.96;97267.72;4942403;29;20052;-88
2022/07/10 01:38:46;;;;;;;4.50;3.60;;;;;;;17.32;66.78;97272.03;4946012;29;20107;-86
2022/07/10 01:41:14;;;;;;;4.20;3.40;;;;;;;17.26;67.48;97271.03;4945979;29;20569;-84
2022/07/10 01:43:44;;;;;;;3.85;3.45;;;;;;;17.22;67.53;97266.38;4947033;29;20070;-83
2022/07/10 01:46:12;;;;;;;5.30;3.55;;;;;;;17.19;67.64;97272.88;4949146;29;20051;-88
2022/07/10 01:48:41;;;;;;;4.93;3.70;;;;;;;17.17;67.81;97259.09;4949134;29;20276;-90
2022/07/10 01:51:10;;;;;;;6.30;4.15;;;;;;;17.15;67.89;97261.13;4948595;29;20059;-89
2022/07/10 01:53:38;;;;;;;4.72;3.90;;;;;;;17.12;67.92;97261.56;4948102;29;20153;-87
2022/07/10 01:56:09;;;;;;;3.28;2.97;;;;;;;17.16;68.20;97267.19;4948005;29;20079;-87
2022/07/10 01:58:37;;;;;;;6.63;4.60;;;;;;;17.18;68.29;97265.97;4946355;29;20052;-84
2022/07/10 02:01:06;;;;;;;4.32;3.92;;;;;;;17.21;68.64;97265.56;4945827;29;20560;-83
2022/07/10 02:06:21;;;;;;;4.70;4.30;;;;;;;17.29;68.57;97260.06;4928824;29;20399;-83
2022/07/10 02:08:49;;;;;;;4.88;4.40;;;;;;;17.32;68.62;97256.22;4944772;29;20269;-81
2022/07/10 02:11:18;;;;;;;3.42;3.20;;;;;;;17.36;69.80;97256.59;4944618;29;20060;-85
2022/07/10 02:13:45;;;;;;;4.57;4.18;;;;;;;17.41;69.13;97247.03;4944589;29;20111;-84
2022/07/10 02:16:13;;;;;;;5.10;4.20;;;;;;;17.45;68.87;97250.06;4944957;29;20079;-87
2022/07/10 02:18:41;;;;;;;5.28;4.57;;;;;;;17.46;68.43;97260.41;4944992;29;20052;-85
2022/07/10 02:21:10;;;;;;;4.45;3.85;;;;;;;17.48;68.48;97254.91;4944675;29;20399;-86
2022/07/10 02:23:40;;;;;;;5.45;4.47;;;;;;;17.50;68.16;97258.16;4944315;29;20502;-85
2022/07/10 02:26:08;;;;;;;3.67;3.38;;;;;;;17.53;69.34;97260.38;4944199;29;20047;-88
2022/07/10 02:28:37;;;;;;;6.38;4.20;;;;;;;17.56;68.82;97267.88;4944212;29;20048;-84
2022/07/10 02:31:06;;;;;;;5.63;4.43;;;;;;;17.57;68.67;97263.41;4943717;29;20055;-88
2022/07/10 02:33:34;;;;;;;4.32;4.03;;;;;;;17.57;68.12;97264.22;4944506;29;20059;-87
2022/07/10 02:36:01;;;;;;;4.15;3.45;;;;;;;17.54;68.42;97262.00;4944223;29;20060;-87
2022/07/10 02:38:29;;;;;;;5.22;4.35;;;;;;;17.52;67.82;97266.69;4944054;29;20055;-82
2022/07/10 02:40:57;;;;;;;4.47;4.07;;;;;;;17.53;67.91;97268.28;4943477;29;20059;-83
2022/07/10 02:43:24;;;;;;;4.50;4.13;;;;;;;17.52;67.67;97264.03;4944997;29;20051;-84
2022/07/10 02:45:53;;;;;;;5.13;4.57;;;;;;;17.48;67.56;97262.84;4951063;29;20056;-87
2022/07/10 02:48:21;;;;;;;4.68;3.97;;;;;;;17.44;67.86;97253.72;4949647;29;20056;-88
2022/07/10 02:50:49;;;;;;;5.28;4.30;;;;;;;17.43;67.95;97262.66;4949532;29;20056;-88
2022/07/10 02:53:17;;;;;;;5.10;4.47;;;;;;;17.44;67.87;97256.34;4950229;29;20047;-88
2022/07/10 02:55:44;;;;;;;4.43;4.03;;;;;;;17.45;67.54;97261.44;4950357;29;20126;-84
2022/07/10 02:58:12;;;;;;;4.20;3.90;;;;;;;17.44;67.74;97265.06;4949332;29;20051;-88
2022/07/10 03:00:41;;;;;;;4.95;4.47;;;;;;;17.42;67.40;97261.03;4948909;29;20054;-85
2022/07/10 03:03:10;;;;;;;4.15;3.85;;;;;;;17.41;68.20;97264.69;4948451;29;20115;-88
2022/07/10 03:05:38;;;;;;;5.22;4.82;;;;;;;17.40;67.90;97260.44;4949459;29;20088;-84
2022/07/10 03:08:05;;;;;;;4.95;4.07;;;;;;;17.40;68.25;97252.50;4949643;29;20118;-84
2022/07/10 03:10:33;;;;;;;4.70;3.83;;;;;;;17.42;68.76;97256.56;4949483;29;20175;-87
2022/07/10 03:13:01;;;;;;;4.47;4.05;;;;;;;17.45;68.38;97247.44;4950202;29;20059;-86
2022/07/10 03:15:29;;;;;;;6.90;4.97;;;;;;;17.44;68.32;97246.59;4949446;29;20052;-86
2022/07/10 03:17:57;;;;;;;5.60;5.10;;;;;;;17.42;68.06;97251.28;4948815;29;20433;-88
2022/07/10 03:20:26;;;;;;;5.97;5.15;;;;;;;17.41;67.66;97251.50;4948588;29;20138;-88
2022/07/10 03:22:53;;;;;;;5.80;4.90;;;;;;;17.37;67.80;97259.03;4948745;29;20047;-87
2022/07/10 03:25:21;;;;;;;4.78;4.35;;;;;;;17.34;67.81;97258.63;4947120;29;20148;-87
2022/07/10 03:27:49;;;;;;;4.70;4.30;;;;;;;17.33;68.69;97257.81;4947412;29;20110;-85
2022/07/10 03:30:17;;;;;;;4.57;4.18;;;;;;;17.36;68.18;97261.84;4946220;29;20044;-84
2022/07/10 03:32:44;;;;;;;6.25;4.50;;;;;;;17.33;68.07;97264.91;4947759;29;20051;-86
2022/07/10 03:35:12;;;;;;;5.20;4.68;;;;;;;17.29;67.88;97262.72;4947137;29;20056;-82
2022/07/10 03:37:41;;;;;;;5.75;4.43;;;;;;;17.27;67.79;97267.38;4946862;29;20102;-85
2022/07/10 03:40:10;;;;;;;5.07;4.57;;;;;;;17.25;68.15;97266.78;4946138;29;20051;-81
2022/07/10 03:42:37;;;;;;;5.40;4.90;;;;;;;17.23;67.94;97263.53;4947799;29;20047;-87
2022/07/10 03:45:06;;;;;;;6.22;5.40;;;;;;;17.22;67.94;97267.19;4950694;29;20538;-87
2022/07/10 03:47:34;;;;;;;5.25;4.82;;;;;;;17.20;68.15;97274.47;4951284;29;20048;-88
2022/07/10 03:50:02;;;;;;;4.80;4.30;;;;;;;17.17;68.17;97272.28;4951174;29;20080;-85
2022/07/10 03:52:29;;;;;;;4.95;4.55;;;;;;;17.16;67.84;97278.53;4950840;29;20055;-87
2022/07/10 03:54:58;;;;;;;10.73;5.53;;;;;;;17.12;67.88;97272.09;4950371;29;20056;-88
2022/07/10 04:00:12;;;;;;;4.90;4.50;;;;;;;17.07;68.54;97274.50;4947945;29;20464;-86
2022/07/10 04:02:40;;;;;;;6.97;5.65;;;;;;;17.04;68.30;97275.75;4946829;29;20075;-84
2022/07/10 04:05:09;;;;;;;4.60;4.20;;;;;;;17.04;68.63;97274.94;4947967;29;20557;-83
2022/07/10 04:07:37;;;;;;;5.20;4.70;;;;;;;17.03;68.71;97275.94;4948104;29;20048;-88
2022/07/10 04:10:09;;;;;;;6.25;4.80;;;;;;;17.02;68.75;97272.50;4946234;29;20136;-88
2022/07/10 04:12:37;;;;;;;5.57;5.07;;;;;;;17.02;68.44;97269.88;4947346;29;20051;-85
2022/07/10 04:15:06;;;;;;;6.75;5.20;;;;;;;17.00;68.24;97271.09;4945710;29;20047;-84
2022/07/10 04:17:34;;;;;;;5.03;4.53;;;;;;;16.97;68.20;97274.16;4945486;29;20055;-84
2022/07/10 04:20:01;;;;;;;5.45;4.65;;;;;;;16.96;68.29;97280.41;4945768;29;20067;-87
2022/07/10 04:22:29;;;;;;;4.97;4.57;;;;;;;16.93;68.62;97273.75;4946259;29;20525;-87
2022/07/10 04:24:57;;;;;;;7.10;4.72;;;;;;;16.95;68.77;97271.72;4946576;29;20118;-81
2022/07/10 04:27:26;;;;;;;6.97;4.50;;;;;;;16.97;68.61;97274.16;4945885;29;20052;-86
2022/07/10 04:29:54;;;;;;;6.13;4.45;;;;;;;16.95;68.62;97265.63;4944908;29;20051;-83
2022/07/10 04:32:21;;;;;;;6.45;4.80;;;;;;;16.92;68.56;97271.31;4944168;29;20430;-86
2022/07/10 04:34:49;;;;;;;7.10;4.47;;;;;;;16.90;68.53;97274.13;4944821;29;20047;-83
2022/07/10 04:37:17;;;;;;;4.95;4.55;;;;;;;16.88;68.60;97270.91;4943893;29;20074;-82
2022/07/10 04:39:45;;;;;;;5.00;4.22;;;;;;;16.89;68.66;97278.59;4943350;29;20047;-82
2022/07/10 04:42:13;;;;;;;4.20;3.78;;;;;;;16.94;69.03;97285.09;4946360;29;20051;-87
2022/07/10 04:44:42;;;;;;;6.15;4.32;;;;;;;16.98;68.74;97283.66;4948889;29;20078;-88
2022/07/10 04:47:10;;;;;;;4.25;3.90;;;;;;;17.00;68.51;97285.06;4949183;29;20054;-86
2022/07/10 04:49:37;;;;;;;4.45;3.20;;;;;;;17.02;69.29;97282.25;4948594;29;20055;-87
2022/07/10 04:52:06;;;;;;;4.03;3.63;;;;;;;17.04;69.31;97280.22;4947474;29;20537;-87
2022/07/10 04:54:33;;;;;;;4.38;4.07;;;;;;;17.08;68.40;97281.44;4946476;29;20099;-84
2022/07/10 04:57:01;;;;;;;5.03;4.47;;;;;;;17.08;68.23;97276.16;4946472;29;20585;-87
2022/07/10 04:59:29;;;;;;;7.43;5.50;;;;;;;17.04;68.23;97277.56;4946717;29;20088;-83
2022/07/10 05:01:58;;;;;;;5.38;4.68;;;;;;;17.04;68.23;97285.47;4946122;29;20071;-86
2022/07/10 05:04:26;;;;;;;5.75;4.13;;;;;;;17.04;68.43;97280.22;4945738;29;20051;-83
2022/07/10 05:06:54;;;;;;;6.30;4.70;;;;;;;17.02;67.84;97277.78;4944634;29;20048;-82
2022/07/10 05:09:21;;;;;;;6.97;4.20;;;;;;;16.98;67.65;97276.56;4945039;29;20052;-89
2022/07/10 05:11:49;;;;;;;4.65;4.25;;;;;;;16.95;67.80;97278.81;4943071;29;20135;-87
2022/07/10 05:14:17;;;;;;;7.68;3.60;;;;;;;16.95;67.77;97281.44;4943886;29;20414;-84
2022/07/10 05:16:44;;;;;;;5.90;3.33;;;;;;;16.93;67.45;97286.91;4943007;29;20055;-81
2022/07/10 05:19:14;;;;;;;4.28;3.90;;;;;;;16.92;67.65;97277.38;4943265;29;20051;-86
2022/07/10 05:21:41;;;;;;;6.80;4.32;;;;;;;16.91;67.33;97277.59;4941712;29;20438;-84
2022/07/10 05:24:09;;;;;;;5.93;4.00;;;;;;;16.88;67.86;97290.16;4941792;29;20091;-81
2022/07/10 05:26:37;;;;;;;4.40;4.00;;;;;;;16.88;67.52;97294.63;4941985;29;20111;-81
2022/07/10 05:29:04;;;;;;;4.25;3.22;;;;;;;16.89;67.81;97291.78;4941135;29;20072;-82
2022/07/10 05:31:32;;;;;;;7.22;4.00;;;;;;;16.90;67.35;97297.84;4941454;29;20466;-81
2022/07/10 05:34:00;;;;;;;5.47;3.40;;;;;;;16.91;67.32;97298.69;4941399;29;20535;-75
2022/07/10 05:36:29;;;;;;;7.20;3.40;;;;;;;16.92;67.54;97292.38;4930396;29;20044;-76
2022/07/10 05:38:57;;;;;;;5.13;3.13;;;;;;;16.93;66.49;97294.03;4934974;29;20087;-76
2022/07/10 05:41:24;;;;;;;3.60;3.10;;;;;;;16.88;66.45;97286.72;4922060;29;20048;-79
2022/07/10 05:43:52;;;;;;;3.67;3.17;;;;;;;16.85;66.42;97295.84;4928076;29;20048;-78
2022/07/10 05:46:19;;;;;;;3.55;3.25;;;;;;;16.84;66.66;97299.50;4942735;29;20052;-78
2022/07/10 05:48:47;;;;;;;4.43;3.03;;;;;;;16.86;66.42;97294.03;4942208;29;20079;-77
2022/07/10 05:51:15;;;;;;;2.95;2.50;;;;;;;16.86;66.78;97300.09;4942516;29;20131;-79
2022/07/10 05:54:00;;;;;;;4.15;2.95;;;;;;;16.87;66.90;97306.19;4925675;29;20056;-79
2022/07/10 05:56:27;;;;;;;3.72;3.17;;;;;;;16.87;66.31;97306.19;4922613;29;20476;-78
2022/07/10 05:58:56;;;;;;;3.38;3.05;;;;;;;16.86;66.26;97309.84;4923168;29;20104;-77
2022/07/10 06:01:23;;;;;;;4.03;3.00;;;;;;;16.83;65.88;97308.41;4922084;29;20103;-79
2022/07/10 06:03:51;;;;;;;5.93;3.00;;;;;;;16.80;65.89;97310.66;4923077;29;20056;-79
2022/07/10 06:06:19;;;;;;;4.82;2.95;;;;;;;16.79;65.91;97315.09;4923225;29;20063;-78
2022/07/10 06:08:47;;;;;;;7.85;3.00;;;;;;;16.80;65.90;97315.91;4921802;29;20096;-78
2022/07/10 06:11:16;;;;;;;4.15;3.00;;;;;;;16.79;65.64;97323.00;4939585;29;20080;-76
2022/07/10 06:13:44;;;;;;;5.28;3.17;;;;;;;16.76;65.67;97330.47;4943081;29;20518;-86
2022/07/10 06:16:12;;;;;;;4.80;2.83;;;;;;;16.74;66.04;97328.03;4941714;29;20470;-87
2022/07/10 06:18:39;;;;;;;4.72;2.85;;;;;;;16.73;65.67;97325.63;4943403;29;20052;-78
2022/07/10 06:21:08;;;;;;;3.47;2.35;;;;;;;16.72;65.68;97334.53;4942913;29;20501;-78
2022/07/10 06:23:36;;;;;;;3.20;2.40;;;;;;;16.70;65.27;97329.44;4943233;29;20453;-78
2022/07/10 06:26:04;;;;;;;4.05;2.60;;;;;;;16.65;65.33;97327.44;4945972;29;20087;-77
2022/07/10 06:28:35;;;;;;;3.83;2.60;;;;;;;16.63;65.24;97326.81;4947037;29;20551;-79
2022/07/10 06:31:03;;;;;;;2.58;1.95;;;;;;;16.62;64.70;97334.94;4945856;29;20052;-79
2022/07/10 06:33:32;;;;;;;5.30;2.67;;;;;;;16.59;64.52;97345.88;4946256;29;20052;-78
2022/07/10 06:35:59;;;;;;;5.10;1.75;;;;;;;16.57;64.62;97342.63;4945072;29;20106;-77
2022/07/10 06:38:27;;;;;;;4.65;2.00;;;;;;;16.57;64.98;97348.69;4947359;29;20229;-79
2022/07/10 06:40:54;;;;;;;3.63;2.10;;;;;;;16.59;64.23;97361.66;4946788;29;20048;-78
2022/07/10 06:43:22;;;;;;;2.30;1.95;;;;;;;16.59;63.64;97351.94;4948341;29;20075;-80
2022/07/10 06:45:51;;;;;;;4.97;1.83;;;;;;;16.59;63.10;97351.13;4948465;29;20102;-80
2022/07/10 06:48:18;;;;;;;4.55;2.40;;;;;;;16.60;63.18;97352.78;4945529;29;20051;-78
2022/07/10 06:50:46;;;;;;;3.90;1.75;;;;;;;16.59;62.18;97353.75;4927500;29;20052;-79
2022/07/10 06:53:15;;;;;;;3.22;1.40;;;;;;;16.58;61.64;97354.78;4934534;29;20052;-78
2022/07/10 06:55:42;;;;;;;3.05;1.38;;;;;;;16.58;61.68;97363.50;4948204;29;20095;-79
2022/07/10 06:58:10;;;;;;;2.65;1.30;;;;;;;16.57;60.84;97359.22;4944268;29;20514;-79
2022/07/10 07:00:38;;;;;;;3.17;1.27;;;;;;;16.58;61.35;97355.59;4939263;29;20047;-79
2022/07/10 07:03:07;;;;;;;3.05;1.13;;;;;;;16.60;61.21;97350.94;4947932;29;20103;-80
2022/07/10 07:05:35;;;;;;;5.43;1.23;;;;;;;16.64;60.14;97359.25;4949561;29;20055;-80
2022/07/10 07:08:02;;;;;;;3.28;1.40;;;;;;;16.63;59.26;97357.63;4948865;29;20063;-80
2022/07/10 07:10:30;;;;;;;2.03;1.20;;;;;;;16.58;59.61;97358.22;4942915;29;20047;-80
2022/07/10 07:12:59;;;;;;;2.67;1.17;;;;;;;16.59;59.48;97353.75;4947796;29;20056;-83
2022/07/10 07:15:27;;;;;;;3.30;1.20;;;;;;;16.59;59.05;97353.75;4948183;29;20052;-80
2022/07/10 07:18:07;;;;;;;4.40;1.75;;;;;;;16.61;58.87;97360.44;4944317;29;20051;-82
2022/07/10 07:23:23;;;;;;;2.45;0.90;;;;;;;16.60;57.83;97353.56;4943789;29;20063;-78
2022/07/10 07:25:50;;;;;;;1.58;0.90;;;;;;;16.58;57.21;97354.78;4943543;29;20044;-82
2022/07/10 07:28:19;;;;;;;2.92;1.00;;;;;;;16.57;56.74;97353.16;4943798;29;20088;-78
2022/07/10 07:30:48;;;;;;;3.08;1.00;;;;;;;16.58;56.50;97368.75;4944096;29;20152;-82
2022/07/10 07:33:16;;;;;;;2.70;1.00;;;;;;;16.63;56.99;97362.91;4943583;29;20469;-79
2022/07/10 07:35:45;;;;;;;2.08;0.93;;;;;;;16.67;55.69;97358.84;4944621;29;20050;-86
2022/07/10 07:38:13;;;;;;;1.90;0.82;;;;;;;16.73;55.75;97357.25;4942967;29;20052;-79
2022/07/10 07:40:41;;;;;;;1.45;0.70;;;;;;;16.78;54.50;97355.59;4945489;29;20059;-84
2022/07/10 07:43:08;;;;;;;1.35;0.70;;;;;;;16.81;53.45;97357.84;4945992;29;20073;-81
2022/07/10 07:45:36;;;;;;;4.00;1.00;;;;;;;16.86;54.14;97360.72;4948375;29;20055;-80
2022/07/10 07:48:04;;;;;;;2.50;1.02;;;;;;;16.91;53.34;97367.19;4943771;29;20052;-80
2022/07/10 07:50:34;;;;;;;1.25;0.65;;;;;;;16.93;52.12;97367.81;4947034;29;20043;-82
2022/07/10 07:53:04;;;;;;;2.22;0.75;;;;;;;16.95;51.69;97365.78;4947792;29;20422;-82
2022/07/10 07:55:33;;;;;;;2.60;0.80;;;;;;;16.95;52.41;97349.97;4947610;29;20055;-79
2022/07/10 07:58:02;;;;;;;2.17;0.68;;;;;;;16.99;52.73;97356.44;4947537;29;20421;-81
2022/07/10 08:00:31;;;;;;;1.23;0.70;;;;;;;17.04;52.07;97352.19;4947113;29;20060;-78
2022/07/10 08:03:00;;;;;;;2.00;0.90;;;;;;;17.08;52.03;97361.31;4947900;29;20098;-82
2022/07/10 08:05:29;;;;;;;3.38;1.48;;;;;;;17.10;52.54;97353.19;4948093;29;20047;-80
2022/07/10 08:07:58;;;;;;;3.38;0.85;;;;;;;17.16;52.15;97364.75;4945750;29;20071;-83
2022/07/10 08:10:28;;;;;;;4.70;1.05;;;;;;;17.21;51.95;97354.41;4945899;29;20529;-77
2022/07/10 08:12:56;;;;;;;1.48;0.90;;;;;;;17.28;52.88;97353.38;4946649;29;20094;-80
2022/07/10 08:15:24;;;;;;;3.40;0.82;;;;;;;17.35;52.55;97355.19;4946158;29;20047;-79
2022/07/10 08:17:55;;;;;;;1.25;0.60;;;;;;;17.38;51.61;97349.47;4946644;29;20075;-80
2022/07/10 08:20:23;;;;;;;4.38;1.00;;;;;;;17.40;51.25;97347.47;4951131;29;20054;-80
2022/07/10 08:22:52;;;;;;;2.28;0.70;;;;;;;17.41;52.07;97354.38;4951879;29;20051;-79
2022/07/10 08:25:29;;;;;;;2.92;0.80;;;;;;;17.48;51.59;97365.69;4946833;29;20055;-81
2022/07/10 08:28:00;;;;;;;2.67;0.82;;;;;;;17.56;50.77;97367.28;4944867;29;20125;-78
2022/07/10 08:30:28;;;;;;;3.10;1.10;;;;;;;17.56;50.46;97362.00;4944392;29;20047;-80
2022/07/10 08:32:56;;;;;;;1.98;0.80;;;;;;;17.58;51.32;97359.97;4947116;29;20048;-77
2022/07/10 08:35:24;;;;;;;4.05;0.68;;;;;;;17.60;51.54;97364.06;4945665;29;20080;-79
2022/07/10 08:37:51;;;;;;;3.72;0.88;;;;;;;17.63;50.93;97363.63;4951254;29;20099;-79
2022/07/10 08:40:22;;;;;;;2.10;0.80;;;;;;;17.70;52.35;97364.41;4956033;28;20047;-85
2022/07/10 08:42:52;;;;;;;4.82;0.60;;;;;;;17.80;52.47;97363.16;4965484;29;20082;-82
2022/07/10 08:45:20;;;;;;;2.22;1.00;;;;;;;17.86;50.74;97363.19;4951826;29;20118;-79
2022/07/10 08:47:48;;;;;;;3.78;0.88;;;;;;;17.90;50.25;97359.09;4957092;28;20058;-79
2022/07/10 08:50:20;;;;;;;2.95;0.80;;;;;;;17.96;49.93;97359.28;4945745;29;20131;-80
2022/07/10 08:52:55;;;;;;;3.00;0.80;;;;;;;17.99;51.66;97356.22;4947389;29;20648;-80
2022/07/10 08:55:25;;;;;;;2.28;0.90;;;;;;;18.01;50.79;97339.13;4945192;29;20048;-79
2022/07/10 08:57:55;;;;;;;3.20;0.88;;;;;;;18.03;50.22;97342.38;4939586;29;20043;-79
2022/07/10 09:00:23;;;;;;;2.70;0.70;;;;;;;18.05;49.71;97339.53;4941491;29;20056;-77
2022/07/10 09:02:50;;;;;;;5.57;0.60;;;;;;;18.04;49.33;97348.50;4940791;29;20059;-77
2022/07/10 09:05:19;;;;;;;2.40;1.05;;;;;;;18.04;49.48;97338.72;4940734;29;20047;-77
2022/07/10 09:07:46;;;;;;;1.75;0.90;;;;;;;18.05;49.98;97348.25;4941065;29;20498;-77
2022/07/10 09:10:14;;;;;;;2.38;0.70;;;;;;;18.07;49.45;97348.06;4939049;29;20063;-77
2022/07/10 09:12:51;;;;;;;3.50;0.90;;;;;;;18.07;48.51;97343.59;4937788;29;20110;-78
2022/07/10 09:15:23;;;;;;;2.03;0.70;;;;;;;18.08;48.96;97345.22;4937041;29;20052;-77
2022/07/10 09:17:52;;;;;;;3.05;1.05;;;;;;;18.11;48.89;97344.78;4937625;29;20047;-77
2022/07/10 09:20:31;;;;;;;3.80;1.02;;;;;;;18.16;48.82;97351.25;4936905;29;20115;-75
2022/07/10 09:23:00;;;;;;;1.63;0.77;;;;;;;18.19;48.58;97356.09;4936326;29;20106;-76
2022/07/10 09:25:34;;;;;;;2.33;0.60;;;;;;;18.21;48.36;97359.34;4937064;29;20466;-78
2022/07/10 09:28:05;;;;;;;2.65;0.80;;;;;;;18.21;48.82;97352.22;4931955;29;20056;-77
2022/07/10 09:30:36;;;;;;;4.68;0.90;;;;;;;18.23;48.21;97349.38;4930103;29;20048;-76
2022/07/10 09:33:24;;;;;;;3.42;0.80;;;;;;;18.28;48.71;97347.75;4937080;29;20055;-76
2022/07/10 09:36:07;;;;;;;1.73;0.68;;;;;;;18.38;49.28;97349.91;4945136;29;20052;-77
2022/07/10 09:38:56;;;;;;;4.22;1.00;;;;;;;18.47;48.32;97351.25;4946657;29;20068;-76
2022/07/10 09:41:27;;;;;;;4.28;1.35;;;;;;;18.51;47.75;97357.75;4942273;29;20115;-77
2022/07/10 09:43:56;;;;;;;2.17;0.88;;;;;;;18.55;48.38;97349.41;4939112;29;20044;-76
2022/07/10 09:46:26;;;;;;;4.70;0.85;;;;;;;18.59;47.50;97354.03;4944822;29;20048;-78
2022/07/10 09:49:08;;;;;;;2.40;0.75;;;;;;;18.63;47.27;97343.84;4946149;29;20060;-77
2022/07/10 09:51:38;;;;;;;2.72;0.90;;;;;;;18.70;47.67;97339.34;4943570;29;20055;-78
2022/07/10 09:54:14;;;;;;;1.77;0.77;;;;;;;18.76;47.41;97341.13;4923758;29;20054;-80
2022/07/10 09:56:43;;;;;;;2.83;0.80;;;;;;;18.80;47.85;97342.31;4925029;29;20048;-81
2022/07/10 09:59:12;;;;;;;2.30;0.60;;;;;;;18.81;47.01;97338.66;4937085;29;20060;-78
2022/07/10 10:01:46;;;;;;;2.53;1.00;;;;;;;18.84;47.45;97337.41;4933928;29;20059;-80
2022/07/10 10:04:15;;;;;;;1.40;0.68;;;;;;;18.87;47.38;97332.50;4945573;29;20051;-78
2022/07/10 10:06:45;;;;;;;2.67;0.60;;;;;;;18.94;46.81;97335.91;4945651;29;20051;-77
2022/07/10 10:09:19;;;;;;;2.58;0.95;;;;;;;19.00;46.38;97328.94;4945037;29;20044;-77
2022/07/10 10:11:48;;;;;;;0.93;0.80;;;;;;;19.06;46.72;97335.97;4947436;29;20048;-80
2022/07/10 10:14:19;;;;;;;0.95;0.63;;;;;;;19.12;45.79;97339.59;4947421;29;20071;-78
2022/07/10 10:16:48;;;;;;;2.13;0.70;;;;;;;19.11;45.00;97336.16;4947303;29;20047;-79
2022/07/10 10:22:05;;;;;;;5.82;1.35;;;;;;;19.11;44.98;97344.09;4953302;29;20092;-77
2022/07/10 10:24:33;;;;;;;2.75;0.93;;;;;;;19.12;44.49;97335.13;4954680;29;20052;-78
2022/07/10 10:27:01;;;;;;;2.97;1.40;;;;;;;19.14;43.99;97343.66;4947928;29;20059;-78
2022/07/10 10:29:30;;;;;;;4.25;2.08;;;;;;;19.18;44.48;97344.03;4947861;29;20052;-79
2022/07/10 10:32:00;;;;;;;4.82;2.75;;;;;;;19.25;43.78;97334.19;4948356;29;20135;-86
2022/07/10 10:34:44;;;;;;;7.20;2.80;;;;;;;19.33;43.78;97341.84;4945794;29;20052;-78
2022/07/10 10:37:36;;;;;;;9.65;3.33;;;;;;;19.37;43.53;97346.69;4948561;29;20058;-80
2022/07/10 10:40:06;;;;;;;3.88;1.60;;;;;;;19.41;43.39;97347.88;4951558;29;20058;-81
2022/07/10 10:42:35;;;;;;;7.05;2.75;;;;;;;19.41;43.13;97342.56;4942068;29;20060;-78
2022/07/10 10:45:27;;;;;;;6.25;2.53;;;;;;;19.46;43.11;97345.34;4943196;29;20497;-79
2022/07/10 10:47:59;;;;;;;7.00;3.03;;;;;;;19.48;42.59;97348.59;4945887;29;20051;-78
2022/07/10 10:50:48;;;;;;;3.13;1.02;;;;;;;19.49;42.87;97351.03;4947351;29;20103;-79
2022/07/10 10:53:18;;;;;;;2.38;1.00;;;;;;;19.49;42.74;97348.38;4946079;29;20047;-79
2022/07/10 10:56:23;;;;;;;2.40;1.00;;;;;;;19.53;43.23;97340.81;4948169;29;20059;-79
2022/07/10 10:58:52;;;;;;;1.50;0.80;;;;;;;19.56;43.11;97338.53;4920889;29;20058;-79
2022/07/10 11:01:29;;;;;;;4.57;0.80;;;;;;;19.59;40.89;97339.94;4945294;29;20056;-77
2022/07/10 11:04:22;;;;;;;2.75;0.80;;;;;;;19.58;41.30;97337.50;4947440;29;20525;-81
2022/07/10 11:06:52;;;;;;;1.33;0.52;;;;;;;19.60;42.00;97330.97;4941059;29;20135;-79
2022/07/10 11:09:25;;;;;;;3.95;0.88;;;;;;;19.64;42.09;97334.78;4959975;28;20103;-78
2022/07/10 11:12:00;;;;;;;1.67;0.47;;;;;;;19.67;42.13;97334.34;4945550;29;20353;-79
2022/07/10 11:14:29;;;;;;;3.47;0.70;;;;;;;19.68;41.70;97322.72;4949551;29;20050;-77
2022/07/10 11:16:57;;;;;;;1.75;0.90;;;;;;;19.71;42.29;97332.91;4957628;29;20326;-80
2022/07/10 11:19:28;;;;;;;1.63;0.50;;;;;;;19.76;41.74;97327.72;4947363;29;20106;-80
2022/07/10 11:22:19;;;;;;;1.13;0.60;;;;;;;19.82;42.45;97325.25;4944252;29;20407;-80
2022/07/10 11:24:55;;;;;;;0.52;0.50;;;;;;;19.84;40.89;97333.78;4953157;29;20058;-77
2022/07/10 11:27:33;;;;;;;2.50;0.60;;;;;;;19.85;41.06;97335.38;4944931;29;20055;-78
2022/07/10 11:30:01;;;;;;;3.83;0.85;;;;;;;19.85;40.89;97330.09;4944338;29;20055;-77
2022/07/10 11:32:29;;;;;;;0.90;0.50;;;;;;;19.88;41.87;97329.66;4943962;29;20111;-79
2022/07/10 11:34:59;;;;;;;1.63;0.70;;;;;;;19.92;40.25;97326.34;4943632;29;20086;-77
2022/07/10 11:37:30;;;;;;;1.55;0.60;;;;;;;19.97;40.67;97328.31;4945010;29;20110;-78
2022/07/10 11:40:11;;;;;;;1.77;0.65;;;;;;;20.00;39.49;97322.56;4948761;29;20118;-74
2022/07/10 11:42:52;;;;;;;1.70;0.70;;;;;;;19.98;39.91;97337.84;4951925;29;20087;-77
2022/07/10 11:45:25;;;;;;;1.13;0.50;;;;;;;19.95;40.12;97333.81;4926840;29;20570;-77
2022/07/10 11:47:53;;;;;;;2.28;0.73;;;;;;;19.99;40.82;97342.13;4938932;29;20055;-77
2022/07/10 11:50:22;;;;;;;2.78;0.70;;;;;;;20.00;40.57;97330.50;4947979;29;20109;-79
2022/07/10 11:52:50;;;;;;;1.50;0.45;;;;;;;20.01;40.09;97332.13;4948420;29;20122;-79
2022/07/10 11:55:19;;;;;;;1.83;0.40;;;;;;;19.98;39.82;97329.13;4948967;29;20051;-78
2022/07/10 11:57:49;;;;;;;0.68;0.50;;;;;;;19.95;39.73;97327.72;4947931;29;20052;-79